Flight Track Log - Related Links

Times and Time Zones

All times are in EDT time to prevent confusion due to time zone crossing. See the N4612D flight status page for this flight to view local times or setup timezone preferences in your user account.

Time Position Orientation Groundspeed Altitude Reporting Facility
EDT Latitude Longitude Course Direction KTS MPH feet Rate Location/Type
04:06PM 44.2069 -123.1850 11° North 110 127 3,400  Level Seattle Center
04:07PM 44.3256 -123.1542 11° North  Level FlightAware Approximate
04:07PM 44.2344 -123.1778 11° North 104 120 3,500  Level Seattle Center
04:08PM 44.3602 -123.1449 11° North  Level FlightAware Approximate
04:08PM 44.2628 -123.1708 10° North 103 119 3,600  Level Seattle Center
04:09PM 44.3949 -123.1356 11° North  Level FlightAware Approximate
04:09PM 44.2928 -123.1636 10° North 110 127 3,600  Level Seattle Center
04:10PM 44.4295 -123.1262 11° North  Level FlightAware Approximate
04:10PM 44.3289 -123.1561 North 111 128 3,700  Level Seattle Center
04:11PM 44.4642 -123.1169 11° North  Level FlightAware Approximate
04:11PM 44.3606 -123.1489 North 114 131 3,500  Level Seattle Center
04:12PM 44.3939 -123.1431 North 121 139 3,300 -49 Descending Seattle Center
04:13PM 44.4239 -123.1347 11° North 112 129 3,400 98 Climbing Seattle Center
04:14PM 44.4536 -123.1289 North 111 128 3,500 146 Climbing Seattle Center
04:15PM 44.4844 -123.1253 North 111 128 3,700 49 Climbing Seattle Center
04:16PM 44.5156 -123.1194 North 111 128 3,600 -49 Descending Seattle Center
04:17PM 44.5467 -123.1114 10° North 112 129 3,600 -49 Level Seattle Center
04:18PM 44.5786 -123.1058 North 113 130 3,500  Descending Seattle Center
04:19PM 44.6117 -123.0981 10° North 113 130 3,600  Climbing Seattle Center
04:20PM 44.6414 -123.0894 12° North 112 129 3,500 -49 Descending Seattle Center
04:21PM 44.6728 -123.0811 11° North 112 129 3,500  Level Seattle Center
04:22PM 44.7031 -123.0769 North 112 129 3,500  Level Seattle Center
04:23PM 44.7331 -123.0661 14° North 112 129 3,500  Level Seattle Center
04:24PM 44.7619 -123.0531 18° North 112 129 3,500  Level Seattle Center
04:25PM 44.7911 -123.0381 20° North 111 128 3,500 -98 Level Seattle Center
04:26PM 44.8247 -123.0228 18° North 109 125 3,300 -197 Descending Seattle Center

Login

Don't have an account? Register now (free) for customized features, flight alerts, and more!